createdAt,value
2019-01-29T00:00:11.783Z,11.50
2019-01-29T00:01:11.786Z,12.10
2019-01-29T00:02:11.709Z,10.80
2019-01-29T00:03:11.707Z,13.30
2019-01-29T00:04:11.651Z,15.10
2019-01-29T00:05:11.717Z,16.50
2019-01-29T00:06:11.595Z,11.40
2019-01-29T00:07:11.623Z,11.70
2019-01-29T00:08:11.529Z,9.20
2019-01-29T00:09:11.531Z,11.70
2019-01-29T00:10:11.459Z,9.90
2019-01-29T00:11:11.444Z,8.70
2019-01-29T00:12:11.392Z,12.60
2019-01-29T00:13:11.458Z,6.60
2019-01-29T00:14:11.335Z,12.70
2019-01-29T00:15:11.377Z,8.80
2019-01-29T00:16:11.283Z,15.60
2019-01-29T00:17:11.300Z,8.00
2019-01-29T00:18:11.206Z,9.60
2019-01-29T00:19:11.203Z,13.40
2019-01-29T00:20:11.142Z,7.00
2019-01-29T00:21:11.221Z,11.40
2019-01-29T00:22:11.075Z,12.10
2019-01-29T00:23:11.127Z,7.70
2019-01-29T00:24:11.016Z,12.60
2019-01-29T00:25:11.033Z,12.50
2019-01-29T00:26:10.950Z,10.90
2019-01-29T00:27:10.940Z,13.40
2019-01-29T00:28:10.890Z,12.20
2019-01-29T00:29:10.955Z,13.20
2019-01-29T00:30:10.827Z,12.80
2019-01-29T00:31:10.861Z,10.10
2019-01-29T00:32:10.789Z,8.60
2019-01-29T00:33:10.817Z,11.30
2019-01-29T00:34:10.708Z,12.90
2019-01-29T00:35:10.705Z,10.30
2019-01-29T00:36:10.633Z,7.70
2019-01-29T00:37:10.720Z,10.80
2019-01-29T00:38:10.591Z,12.00
2019-01-29T00:39:10.658Z,12.30
2019-01-29T00:40:10.513Z,10.30
2019-01-29T00:41:10.537Z,10.00
2019-01-29T00:42:10.445Z,15.00
2019-01-29T00:43:12.369Z,12.60
2019-01-29T00:44:10.383Z,9.80
2019-01-29T00:45:10.402Z,9.60
2019-01-29T00:46:10.306Z,12.10
2019-01-29T00:47:10.313Z,11.90
2019-01-29T00:48:10.247Z,18.20
2019-01-29T00:49:10.317Z,13.30
2019-01-29T00:50:10.302Z,13.50
2019-01-29T00:51:10.222Z,14.30
2019-01-29T00:52:10.121Z,10.30
2019-01-29T00:53:11.160Z,10.80
2019-01-29T00:54:10.057Z,13.60
2019-01-29T00:55:10.049Z,15.40
2019-01-29T00:56:10.039Z,10.60
2019-01-29T00:57:10.053Z,13.60
2019-01-29T00:58:09.943Z,14.80
2019-01-29T00:59:09.967Z,13.00
2019-01-29T01:00:09.876Z,14.30
2019-01-29T01:01:09.915Z,14.40
2019-01-29T01:02:09.808Z,10.80
2019-01-29T01:03:09.795Z,15.90
2019-01-29T01:04:09.773Z,15.50
2019-01-29T01:05:09.817Z,10.50
2019-01-29T01:06:09.671Z,14.90
2019-01-29T01:07:09.720Z,13.90
2019-01-29T01:08:09.614Z,14.30
2019-01-29T01:09:09.617Z,17.80
2019-01-29T01:10:09.566Z,12.50
2019-01-29T01:11:09.542Z,14.70
2019-01-29T01:12:09.489Z,10.50
2019-01-29T01:13:09.559Z,14.10
2019-01-29T01:14:09.430Z,17.70
2019-01-29T01:15:09.468Z,12.70
2019-01-29T01:16:09.361Z,14.30
2019-01-29T01:17:09.375Z,12.50
2019-01-29T01:18:09.291Z,17.40
2019-01-29T01:19:09.277Z,14.90
2019-01-29T01:20:09.221Z,11.60
2019-01-29T01:21:09.294Z,13.90
2019-01-29T01:22:09.160Z,15.20
2019-01-29T01:23:09.703Z,17.10
2019-01-29T01:24:09.100Z,10.80
2019-01-29T01:25:09.117Z,12.90
2019-01-29T01:26:09.029Z,14.50
2019-01-29T01:27:09.021Z,17.90
2019-01-29T01:28:08.976Z,19.90
2019-01-29T01:29:09.059Z,14.20
2019-01-29T01:30:08.909Z,15.50
2019-01-29T01:31:08.950Z,14.60
2019-01-29T01:32:08.847Z,17.70
2019-01-29T01:33:08.867Z,13.40
2019-01-29T01:34:08.777Z,15.50
2019-01-29T01:35:08.763Z,17.50
2019-01-29T01:36:08.717Z,21.40
2019-01-29T01:37:08.784Z,22.40
2019-01-29T01:38:08.672Z,14.30
2019-01-29T01:39:08.691Z,18.10
2019-01-29T01:40:08.634Z,21.90
2019-01-29T01:41:08.602Z,20.20
2019-01-29T01:42:08.517Z,17.10
2019-01-29T01:43:08.521Z,19.50
2019-01-29T01:44:08.481Z,20.00
2019-01-29T01:45:08.522Z,17.40
2019-01-29T01:46:08.393Z,17.90
2019-01-29T01:47:08.440Z,18.80
2019-01-29T01:48:08.340Z,16.60
2019-01-29T01:49:08.348Z,19.10
2019-01-29T01:50:08.268Z,18.50
2019-01-29T01:51:08.282Z,24.20
2019-01-29T01:52:08.209Z,17.20
2019-01-29T01:53:08.275Z,18.10
2019-01-29T01:54:08.144Z,17.40
2019-01-29T01:55:08.178Z,19.90
2019-01-29T01:56:08.078Z,19.10
2019-01-29T01:57:09.111Z,20.20
2019-01-29T01:58:08.007Z,16.30
2019-01-29T01:59:08.008Z,12.50
2019-01-29T02:00:07.942Z,22.90
2019-01-29T02:01:08.021Z,24.40
2019-01-29T02:02:07.911Z,18.50
2019-01-29T02:03:07.922Z,19.60
2019-01-29T02:04:07.823Z,15.00
2019-01-29T02:05:07.861Z,21.30
2019-01-29T02:06:07.747Z,16.50
2019-01-29T02:07:07.750Z,18.10
2019-01-29T02:08:07.691Z,20.00
2019-01-29T02:09:07.757Z,17.30
2019-01-29T02:10:07.632Z,22.60
2019-01-29T02:11:07.674Z,21.80
2019-01-29T02:12:07.569Z,20.00
2019-01-29T02:13:07.593Z,25.40
2019-01-29T02:14:07.519Z,22.30
2019-01-29T02:15:07.492Z,21.80
2019-01-29T02:16:07.436Z,18.10
2019-01-29T02:17:07.505Z,23.60
2019-01-29T02:18:07.371Z,23.70
2019-01-29T02:19:07.415Z,17.80
2019-01-29T02:20:07.303Z,18.40
2019-01-29T02:21:07.324Z,17.70
2019-01-29T02:22:07.252Z,17.70
2019-01-29T02:23:08.050Z,19.30
2019-01-29T02:24:07.194Z,19.90
2019-01-29T02:25:07.248Z,19.60
2019-01-29T02:26:07.245Z,22.20
2019-01-29T02:27:07.137Z,22.60
2019-01-29T02:28:07.073Z,20.10
2019-01-29T02:29:07.041Z,18.00
2019-01-29T02:30:07.102Z,23.50
2019-01-29T02:31:06.955Z,26.10
2019-01-29T02:32:06.933Z,19.50
2019-01-29T02:33:06.897Z,26.10
2019-01-29T02:34:06.893Z,28.30
2019-01-29T02:35:06.830Z,26.10
2019-01-29T02:36:06.820Z,22.30
2019-01-29T02:37:06.778Z,31.70
2019-01-29T02:38:06.823Z,24.20
2019-01-29T02:39:06.731Z,23.30
2019-01-29T02:40:06.737Z,23.10
2019-01-29T02:41:06.632Z,26.70
2019-01-29T02:42:06.651Z,23.20
2019-01-29T02:43:06.567Z,27.30
2019-01-29T02:44:06.659Z,24.70
2019-01-29T02:45:06.505Z,24.40
2019-01-29T02:46:06.565Z,26.10
2019-01-29T02:47:06.442Z,26.20
2019-01-29T02:48:06.476Z,31.50
2019-01-29T02:49:06.380Z,24.80
2019-01-29T02:50:06.391Z,29.20
2019-01-29T02:51:06.309Z,29.60
2019-01-29T02:52:06.304Z,23.80
2019-01-29T02:53:06.250Z,28.80
2019-01-29T02:54:06.316Z,27.60
2019-01-29T02:55:06.186Z,25.50
2019-01-29T02:56:06.224Z,27.10
2019-01-29T02:57:06.129Z,20.40
2019-01-29T02:58:06.168Z,30.60
2019-01-29T02:59:06.053Z,27.30
2019-01-29T03:00:06.051Z,32.00
2019-01-29T03:01:05.997Z,25.80
2019-01-29T03:02:06.050Z,31.40
2019-01-29T03:03:05.924Z,22.60
2019-01-29T03:04:05.969Z,28.80
2019-01-29T03:05:05.866Z,24.70
2019-01-29T03:06:05.875Z,29.90
2019-01-29T03:07:05.796Z,29.50
2019-01-29T03:08:05.796Z,31.20
2019-01-29T03:09:05.740Z,29.90
2019-01-29T03:10:05.798Z,29.20
2019-01-29T03:11:05.770Z,27.50
2019-01-29T03:12:05.726Z,23.50
2019-01-29T03:13:05.605Z,29.20
2019-01-29T03:14:05.651Z,28.80
2019-01-29T03:15:05.540Z,31.00
2019-01-29T03:16:05.562Z,29.70
2019-01-29T03:17:05.487Z,28.50
2019-01-29T03:18:05.554Z,27.00
2019-01-29T03:19:05.411Z,26.10
2019-01-29T03:20:05.495Z,27.90
2019-01-29T03:21:05.347Z,35.20
2019-01-29T03:22:05.381Z,28.30
2019-01-29T03:23:05.303Z,34.30
2019-01-29T03:24:05.273Z,28.40
2019-01-29T03:25:05.217Z,33.60
2019-01-29T03:26:05.310Z,30.30
2019-01-29T03:27:05.162Z,32.20
2019-01-29T03:28:05.199Z,36.50
2019-01-29T03:29:05.082Z,37.50
2019-01-29T03:30:05.125Z,31.80
2019-01-29T03:31:05.031Z,30.60
2019-01-29T03:32:05.056Z,40.00
2019-01-29T03:33:04.959Z,35.10
2019-01-29T03:34:05.037Z,36.10
2019-01-29T03:35:04.904Z,44.40
2019-01-29T03:36:04.947Z,42.30
2019-01-29T03:37:04.830Z,39.90
2019-01-29T03:38:04.854Z,39.20
2019-01-29T03:39:04.781Z,41.60
2019-01-29T03:40:04.765Z,45.20
2019-01-29T03:41:04.759Z,40.00
2019-01-29T03:42:04.777Z,44.80
2019-01-29T03:43:04.677Z,38.20
2019-01-29T03:44:04.697Z,41.70
2019-01-29T03:45:04.572Z,49.10
2019-01-29T03:46:04.592Z,43.30
2019-01-29T03:47:04.507Z,43.60
2019-01-29T03:48:04.510Z,41.90
2019-01-29T03:49:04.494Z,41.00
2019-01-29T03:50:04.522Z,45.90
2019-01-29T03:51:04.392Z,42.40
2019-01-29T03:52:04.437Z,44.20
2019-01-29T03:53:04.326Z,43.00
2019-01-29T03:54:04.348Z,43.90
2019-01-29T03:55:04.264Z,47.90
2019-01-29T03:56:04.259Z,47.90
2019-01-29T03:57:04.201Z,43.00
2019-01-29T03:58:04.270Z,47.00
2019-01-29T03:59:04.160Z,43.10
2019-01-29T04:00:04.180Z,47.90
2019-01-29T04:01:04.062Z,44.90
2019-01-29T04:02:04.095Z,46.90
2019-01-29T04:03:03.996Z,37.00
2019-01-29T04:04:03.992Z,48.00
2019-01-29T04:05:03.938Z,45.30
2019-01-29T04:06:04.018Z,41.20
2019-01-29T04:07:03.868Z,39.80
2019-01-29T04:08:03.924Z,43.90
2019-01-29T04:09:03.818Z,44.40
2019-01-29T04:10:03.837Z,36.90
2019-01-29T04:11:03.745Z,46.60
2019-01-29T04:12:03.751Z,39.00
2019-01-29T04:13:03.676Z,46.50
2019-01-29T04:14:03.761Z,42.40
2019-01-29T04:15:03.621Z,45.70
2019-01-29T04:16:03.661Z,44.80
2019-01-29T04:17:03.550Z,42.50
2019-01-29T04:18:05.630Z,40.30
2019-01-29T04:19:03.481Z,38.30
2019-01-29T04:20:03.485Z,39.50
2019-01-29T04:21:03.423Z,40.10
2019-01-29T04:22:03.498Z,44.20
2019-01-29T04:23:03.351Z,36.30
2019-01-29T04:24:03.416Z,38.00
2019-01-29T04:25:03.286Z,34.20
2019-01-29T04:26:03.316Z,36.20
2019-01-29T04:27:03.280Z,47.00
2019-01-29T04:28:03.226Z,35.40
2019-01-29T04:29:03.194Z,43.90
2019-01-29T04:30:03.138Z,42.50
2019-01-29T04:31:03.100Z,36.70
2019-01-29T04:32:03.149Z,39.40
2019-01-29T04:33:03.060Z,40.20
2019-01-29T04:34:03.062Z,40.60
2019-01-29T04:35:02.979Z,41.70
2019-01-29T04:36:02.985Z,36.70
2019-01-29T04:37:02.923Z,41.10
2019-01-29T04:38:02.985Z,38.00
2019-01-29T04:39:02.840Z,38.70
2019-01-29T04:40:02.900Z,37.10
2019-01-29T04:41:02.769Z,42.30
2019-01-29T04:42:02.819Z,39.10
2019-01-29T04:43:02.709Z,43.30
2019-01-29T04:44:02.745Z,43.60
2019-01-29T04:45:02.643Z,41.30
2019-01-29T04:46:02.637Z,39.90
2019-01-29T04:47:02.586Z,38.90
2019-01-29T04:48:02.642Z,40.80
2019-01-29T04:49:02.532Z,38.10
2019-01-29T04:50:02.557Z,37.40
2019-01-29T04:51:02.458Z,38.30
2019-01-29T04:52:02.564Z,36.50
2019-01-29T04:53:02.389Z,42.40
2019-01-29T04:54:02.372Z,40.60
2019-01-29T04:55:02.331Z,45.60
2019-01-29T04:56:02.389Z,41.20
2019-01-29T04:57:02.303Z,44.60
2019-01-29T04:58:02.328Z,37.90
2019-01-29T04:59:02.185Z,43.30
2019-01-29T05:00:02.219Z,45.80
2019-01-29T05:01:02.166Z,48.40
2019-01-29T05:02:02.113Z,52.00
2019-01-29T05:03:02.057Z,47.00
2019-01-29T05:04:02.171Z,46.40
2019-01-29T05:05:02.014Z,47.10
2019-01-29T05:06:02.040Z,42.70
2019-01-29T05:07:01.972Z,38.00
2019-01-29T05:08:01.969Z,44.30
2019-01-29T05:09:01.888Z,46.00
2019-01-29T05:10:01.867Z,38.00
2019-01-29T05:11:01.813Z,45.20
2019-01-29T05:12:01.897Z,47.10
2019-01-29T05:13:01.813Z,49.70
2019-01-29T05:14:01.786Z,45.50
2019-01-29T05:15:01.674Z,44.10
2019-01-29T05:16:01.692Z,45.50
2019-01-29T05:17:01.644Z,45.20
2019-01-29T05:18:01.699Z,48.90
2019-01-29T05:19:01.559Z,43.60
2019-01-29T05:20:01.632Z,43.60
2019-01-29T05:21:01.502Z,47.80
2019-01-29T05:22:01.537Z,47.60
2019-01-29T05:23:01.417Z,45.60
2019-01-29T05:24:06.897Z,48.30
2019-01-29T05:25:01.361Z,48.10
2019-01-29T05:26:01.366Z,51.50
2019-01-29T05:27:01.288Z,47.60
2019-01-29T05:28:01.363Z,54.60
2019-01-29T05:29:01.230Z,53.00
2019-01-29T05:30:02.315Z,47.90
2019-01-29T05:31:01.166Z,53.70
2019-01-29T05:32:01.181Z,49.80
2019-01-29T05:33:01.088Z,54.70
2019-01-29T05:34:03.144Z,53.00
2019-01-29T05:35:01.046Z,51.10
2019-01-29T05:36:01.114Z,57.30
2019-01-29T05:37:00.983Z,56.20
2019-01-29T05:38:04.064Z,59.00
2019-01-29T05:39:00.909Z,61.40
2019-01-29T05:40:07.494Z,58.40
2019-01-29T05:41:00.831Z,56.10
2019-01-29T05:42:01.862Z,65.90
2019-01-29T05:43:00.775Z,65.70
2019-01-29T05:44:00.761Z,57.60
2019-01-29T05:45:00.714Z,66.10
2019-01-29T05:46:00.791Z,62.70
2019-01-29T05:47:00.677Z,73.40
2019-01-29T05:48:00.671Z,75.90
2019-01-29T05:49:00.605Z,67.30
2019-01-29T05:50:00.605Z,66.70
2019-01-29T05:51:00.529Z,72.50
2019-01-29T05:52:01.559Z,71.90
2019-01-29T05:53:00.447Z,72.60
2019-01-29T05:54:01.543Z,78.00
2019-01-29T05:55:00.402Z,77.50
2019-01-29T05:56:00.423Z,81.80
2019-01-29T05:57:00.332Z,77.50
2019-01-29T05:58:00.353Z,86.50
2019-01-29T05:59:00.271Z,80.20
2019-01-29T06:00:00.261Z,83.00
2019-01-29T06:01:00.188Z,81.30
2019-01-29T06:02:07.011Z,83.00
2019-01-29T06:03:00.117Z,79.50
2019-01-29T06:04:01.212Z,87.60
2019-01-29T06:05:00.087Z,81.00
2019-01-29T06:06:01.111Z,80.70
2019-01-29T06:07:00.008Z,81.10
2019-01-29T06:08:06.957Z,89.30
2019-01-29T06:08:59.953Z,83.60
2019-01-29T06:10:00.297Z,82.10
2019-01-29T06:10:59.867Z,94.70
2019-01-29T06:12:06.496Z,87.00
2019-01-29T06:12:59.801Z,87.30
2019-01-29T06:14:00.872Z,82.80
2019-01-29T06:14:59.764Z,81.90
2019-01-29T06:15:59.736Z,80.40
2019-01-29T06:16:59.684Z,82.90
2019-01-29T06:18:00.692Z,78.70
2019-01-29T06:18:59.612Z,85.10
2019-01-29T06:20:06.507Z,85.90
2019-01-29T06:20:59.546Z,79.20
2019-01-29T06:22:15.535Z,85.30
2019-01-29T06:22:59.503Z,81.20
2019-01-29T06:24:00.512Z,90.20
2019-01-29T06:24:59.416Z,74.00
2019-01-29T06:25:59.486Z,90.00
2019-01-29T06:26:59.358Z,76.60
2019-01-29T06:28:05.957Z,83.30
2019-01-29T06:28:59.302Z,82.30
2019-01-29T06:30:00.342Z,76.80
2019-01-29T06:30:59.240Z,84.00
2019-01-29T06:31:59.308Z,73.50
2019-01-29T06:32:59.157Z,79.40
2019-01-29T06:34:01.243Z,84.10
2019-01-29T06:34:59.088Z,78.30
2019-01-29T06:36:06.075Z,75.00
2019-01-29T06:36:59.023Z,80.80
2019-01-29T06:38:00.262Z,82.10
2019-01-29T06:38:58.972Z,78.10
2019-01-29T06:39:58.945Z,88.90
2019-01-29T06:40:59.058Z,80.40
2019-01-29T06:41:58.854Z,86.40
2019-01-29T06:42:58.958Z,85.00
2019-01-29T06:43:58.793Z,85.50
2019-01-29T06:44:59.901Z,86.80
2019-01-29T06:45:58.737Z,81.50
2019-01-29T06:46:59.804Z,83.40
2019-01-29T06:47:58.677Z,79.80
2019-01-29T06:49:00.724Z,74.50
2019-01-29T06:49:58.618Z,78.10
2019-01-29T06:50:59.720Z,77.30
2019-01-29T06:51:58.544Z,70.70
2019-01-29T06:52:59.638Z,74.60
2019-01-29T06:53:58.543Z,74.90
2019-01-29T06:54:59.549Z,72.70
2019-01-29T06:55:58.417Z,76.60
2019-01-29T06:56:58.391Z,75.50
2019-01-29T06:57:58.436Z,72.20
2019-01-29T06:58:58.314Z,80.10
2019-01-29T06:59:58.444Z,72.90
2019-01-29T07:00:58.237Z,72.10
2019-01-29T07:02:00.414Z,71.10
2019-01-29T07:02:58.180Z,73.50
2019-01-29T07:03:58.227Z,68.50
2019-01-29T07:04:58.173Z,72.80
2019-01-29T07:05:58.120Z,73.40
2019-01-29T07:06:58.066Z,68.50
2019-01-29T07:07:58.023Z,76.70
2019-01-29T07:08:57.993Z,67.90
2019-01-29T07:09:57.972Z,69.40
2019-01-29T07:10:57.920Z,70.50
2019-01-29T07:11:57.893Z,74.00
2019-01-29T07:12:57.885Z,66.20
2019-01-29T07:13:57.832Z,69.30
2019-01-29T07:14:57.794Z,67.50
2019-01-29T07:15:57.763Z,68.50
2019-01-29T07:16:57.771Z,66.70
2019-01-29T07:17:57.755Z,76.70
2019-01-29T07:18:57.731Z,71.70
2019-01-29T07:19:57.650Z,63.20
2019-01-29T07:20:57.630Z,63.80
2019-01-29T07:21:57.594Z,76.60
2019-01-29T07:22:57.662Z,62.40
2019-01-29T07:23:57.540Z,63.30
2019-01-29T07:24:57.526Z,60.30
2019-01-29T07:25:57.472Z,65.80
2019-01-29T07:26:57.457Z,60.20
2019-01-29T07:27:57.402Z,67.00
2019-01-29T07:28:57.373Z,62.90
2019-01-29T07:29:58.430Z,66.30
2019-01-29T07:30:57.327Z,57.30
2019-01-29T07:31:57.247Z,64.50
2019-01-29T07:32:57.322Z,67.60
2019-01-29T07:33:57.192Z,60.40
2019-01-29T07:34:57.150Z,60.90
2019-01-29T07:35:57.112Z,62.80
2019-01-29T07:36:57.219Z,59.80
2019-01-29T07:37:57.039Z,59.10
2019-01-29T07:38:57.019Z,59.00
2019-01-29T07:39:57.138Z,54.30
2019-01-29T07:40:56.957Z,65.20
2019-01-29T07:41:57.050Z,61.10
2019-01-29T07:42:56.879Z,66.60
2019-01-29T07:43:56.949Z,64.40
2019-01-29T07:44:56.832Z,63.00
2019-01-29T07:45:56.787Z,71.30
2019-01-29T07:46:56.777Z,57.00
2019-01-29T07:47:56.735Z,57.40
2019-01-29T07:48:56.689Z,54.60
2019-01-29T07:49:56.652Z,61.70
2019-01-29T07:50:56.673Z,63.90
2019-01-29T07:51:56.630Z,68.60
2019-01-29T07:52:56.562Z,64.80
2019-01-29T07:53:56.533Z,59.90
2019-01-29T07:54:56.540Z,61.30
2019-01-29T07:55:56.478Z,60.10
2019-01-29T07:56:56.564Z,64.90
2019-01-29T07:57:56.426Z,63.70
2019-01-29T07:58:56.468Z,60.20
2019-01-29T07:59:56.348Z,57.70
2019-01-29T08:00:56.367Z,57.40
2019-01-29T08:01:56.275Z,78.00
2019-01-29T08:02:56.320Z,58.40
2019-01-29T08:03:56.203Z,58.60
2019-01-29T08:04:56.178Z,57.10
2019-01-29T08:05:56.167Z,55.80
2019-01-29T08:06:56.100Z,57.90
2019-01-29T08:07:56.122Z,59.00
2019-01-29T08:08:56.052Z,58.50
2019-01-29T08:09:56.013Z,59.20
2019-01-29T08:10:55.978Z,59.00
2019-01-29T08:11:55.996Z,55.60
2019-01-29T08:12:56.694Z,58.70
2019-01-29T08:13:55.915Z,58.20
2019-01-29T08:14:55.880Z,58.60
2019-01-29T08:15:56.051Z,58.60
2019-01-29T08:16:55.790Z,53.80
2019-01-29T08:17:55.818Z,61.00
2019-01-29T08:18:55.728Z,64.10
2019-01-29T08:19:55.803Z,58.60
2019-01-29T08:20:55.717Z,66.60
2019-01-29T08:21:55.694Z,62.60
2019-01-29T08:22:55.594Z,58.80
2019-01-29T08:23:55.618Z,63.30
2019-01-29T08:25:01.813Z,66.20
2019-01-29T08:25:55.699Z,60.60
2019-01-29T08:26:55.458Z,62.50
2019-01-29T08:27:55.442Z,61.60
2019-01-29T08:28:55.398Z,59.60
2019-01-29T08:29:55.364Z,55.70
2019-01-29T08:30:55.319Z,65.10
2019-01-29T08:31:55.306Z,59.60
2019-01-29T08:32:55.246Z,59.90
2019-01-29T08:33:55.337Z,63.50
2019-01-29T08:34:55.215Z,55.50
2019-01-29T08:35:57.354Z,49.60
2019-01-29T08:36:55.341Z,56.20
2019-01-29T08:37:55.145Z,54.90
2019-01-29T08:38:55.098Z,58.00
2019-01-29T08:39:55.142Z,60.10
2019-01-29T08:40:55.062Z,60.30
2019-01-29T08:41:56.092Z,59.90
2019-01-29T08:42:54.946Z,52.10
2019-01-29T08:43:55.061Z,57.40
2019-01-29T08:44:54.933Z,49.70
2019-01-29T08:45:54.902Z,51.30
2019-01-29T08:46:54.852Z,50.10
2019-01-29T08:47:54.783Z,52.80
2019-01-29T08:48:54.768Z,43.00
2019-01-29T08:49:54.786Z,52.80
2019-01-29T08:50:54.719Z,53.30
2019-01-29T08:51:54.650Z,44.30
2019-01-29T08:52:55.748Z,48.60
2019-01-29T08:53:54.589Z,43.80
2019-01-29T08:54:54.559Z,45.60
2019-01-29T08:55:54.507Z,43.10
2019-01-29T08:56:54.490Z,36.70
2019-01-29T08:57:54.533Z,42.70
2019-01-29T08:58:54.415Z,43.60
2019-01-29T08:59:54.393Z,41.50
2019-01-29T09:00:54.361Z,38.30
2019-01-29T09:01:55.463Z,42.00
2019-01-29T09:02:54.348Z,43.80
2019-01-29T09:03:54.306Z,35.90
2019-01-29T09:04:54.265Z,36.40
2019-01-29T09:05:55.349Z,38.90
2019-01-29T09:06:54.307Z,40.30
2019-01-29T09:07:54.157Z,34.30
2019-01-29T09:08:54.115Z,39.60
2019-01-29T09:09:54.099Z,36.30
2019-01-29T09:10:54.044Z,36.20
2019-01-29T09:11:55.073Z,37.90
2019-01-29T09:12:53.981Z,42.30
2019-01-29T09:13:53.992Z,38.70
2019-01-29T09:14:53.921Z,33.20
2019-01-29T09:15:53.943Z,37.80
2019-01-29T09:16:53.833Z,33.60
2019-01-29T09:17:53.856Z,33.80
2019-01-29T09:18:53.777Z,36.30
2019-01-29T09:19:53.762Z,35.60
2019-01-29T09:20:53.744Z,41.10
2019-01-29T09:21:53.671Z,36.60
2019-01-29T09:22:53.635Z,35.60
2019-01-29T09:23:53.694Z,34.40
2019-01-29T09:24:53.560Z,36.60
2019-01-29T09:25:55.664Z,31.70
2019-01-29T09:26:53.504Z,35.60
2019-01-29T09:27:53.476Z,30.80
2019-01-29T09:28:53.564Z,34.20
2019-01-29T09:29:53.429Z,33.70
2019-01-29T09:30:53.371Z,37.70
2019-01-29T09:31:53.439Z,33.10
2019-01-29T09:32:53.343Z,35.00
2019-01-29T09:33:53.280Z,36.60
2019-01-29T09:34:53.256Z,32.90
2019-01-29T09:35:53.207Z,33.40
2019-01-29T09:36:53.273Z,34.00
2019-01-29T09:37:53.145Z,35.50
2019-01-29T09:38:53.172Z,35.20
2019-01-29T09:39:53.086Z,33.90
2019-01-29T09:40:53.099Z,35.20
2019-01-29T09:41:53.027Z,35.80
2019-01-29T09:42:52.990Z,39.30
2019-01-29T09:43:52.947Z,34.70
2019-01-29T09:44:53.015Z,34.20
2019-01-29T09:45:52.894Z,40.60
2019-01-29T09:46:52.950Z,31.30
2019-01-29T09:47:52.815Z,37.30
2019-01-29T09:48:52.786Z,37.00
2019-01-29T09:49:52.847Z,32.20
2019-01-29T09:50:52.719Z,35.70
2019-01-29T09:51:52.760Z,31.60
2019-01-29T09:52:52.667Z,33.00
2019-01-29T09:53:52.663Z,40.60
2019-01-29T09:54:52.602Z,37.70
2019-01-29T09:55:52.560Z,35.80
2019-01-29T09:56:52.596Z,43.60
2019-01-29T09:57:52.532Z,38.70
2019-01-29T09:58:52.476Z,36.40
2019-01-29T10:00:00.279Z,35.60
2019-01-29T10:00:52.401Z,33.40
2019-01-29T10:01:52.437Z,37.20
2019-01-29T10:02:52.342Z,36.80
2019-01-29T10:03:53.352Z,39.50
2019-01-29T10:04:52.296Z,32.80
2019-01-29T10:06:16.002Z,37.50
2019-01-29T10:06:52.223Z,35.90
2019-01-29T10:07:52.186Z,36.40
2019-01-29T10:08:52.133Z,34.90
2019-01-29T10:09:53.201Z,34.00
2019-01-29T10:10:52.099Z,37.60
2019-01-29T10:12:01.088Z,36.60
2019-01-29T10:12:52.048Z,35.80
2019-01-29T10:13:53.045Z,34.90
2019-01-29T10:14:51.969Z,36.70
2019-01-29T10:15:58.588Z,32.50
2019-01-29T10:16:51.920Z,36.80
2019-01-29T10:17:51.972Z,38.10
2019-01-29T10:18:51.857Z,33.00
2019-01-29T10:19:51.852Z,36.50
2019-01-29T10:20:51.801Z,35.60
2019-01-29T10:21:51.781Z,43.10
2019-01-29T10:22:51.709Z,35.00
2019-01-29T10:23:51.746Z,36.20
2019-01-29T10:24:51.636Z,33.30
2019-01-29T10:26:51.551Z,31.80
2019-01-29T10:27:58.551Z,34.20
2019-01-29T10:28:51.509Z,33.90
2019-01-29T10:29:52.501Z,38.30
2019-01-29T10:30:51.421Z,37.30
2019-01-29T10:31:58.061Z,34.90
2019-01-29T10:32:51.369Z,37.90
2019-01-29T10:33:51.366Z,29.90
2019-01-29T10:34:51.296Z,36.30
2019-01-29T10:35:51.374Z,39.40
2019-01-29T10:36:51.255Z,35.40
2019-01-29T10:37:51.206Z,40.80
2019-01-29T10:38:51.157Z,39.70
2019-01-29T10:39:51.159Z,39.30
2019-01-29T10:40:51.101Z,37.70
2019-01-29T10:41:51.081Z,40.00
2019-01-29T10:42:51.038Z,39.60
2019-01-29T10:43:51.015Z,38.70
2019-01-29T10:44:50.979Z,41.10
2019-01-29T10:45:51.036Z,41.50
2019-01-29T10:46:50.910Z,44.20
2019-01-29T10:47:50.864Z,41.30
2019-01-29T10:48:50.839Z,39.00
2019-01-29T10:49:50.855Z,40.80
2019-01-29T10:50:50.801Z,37.00
2019-01-29T10:51:50.730Z,41.00
2019-01-29T10:52:50.712Z,37.60
2019-01-29T10:53:50.830Z,38.50
2019-01-29T10:54:50.652Z,42.30
2019-01-29T10:55:50.704Z,41.00
2019-01-29T10:56:50.575Z,41.10
2019-01-29T10:57:50.626Z,38.20
2019-01-29T10:58:50.509Z,40.80
2019-01-29T10:59:50.501Z,42.00
2019-01-29T11:00:50.468Z,35.40
2019-01-29T11:01:50.430Z,43.40
2019-01-29T11:02:50.408Z,40.70
2019-01-29T11:03:50.361Z,37.10
2019-01-29T11:04:50.340Z,37.10
2019-01-29T11:05:50.379Z,36.60
2019-01-29T11:06:50.334Z,34.10
2019-01-29T11:07:50.276Z,35.50
2019-01-29T11:08:50.249Z,36.10
2019-01-29T11:09:50.226Z,32.40
2019-01-29T11:10:50.144Z,35.70
2019-01-29T11:11:51.116Z,33.90
2019-01-29T11:12:50.056Z,34.90
2019-01-29T11:13:50.031Z,31.60
2019-01-29T11:14:50.005Z,29.20
2019-01-29T11:15:49.965Z,29.70
2019-01-29T11:16:49.935Z,28.60
2019-01-29T11:17:49.937Z,31.80
2019-01-29T11:18:49.866Z,27.70
2019-01-29T11:19:49.963Z,27.40
2019-01-29T11:20:49.797Z,28.10
2019-01-29T11:21:49.855Z,29.70
2019-01-29T11:22:49.767Z,31.80
2019-01-29T11:23:49.797Z,27.30
2019-01-29T11:24:49.702Z,25.90
2019-01-29T11:25:55.580Z,30.90
2019-01-29T11:26:49.603Z,33.90
2019-01-29T11:27:49.700Z,33.60
2019-01-29T11:28:49.555Z,29.20
2019-01-29T11:29:49.610Z,32.80
2019-01-29T11:30:49.637Z,28.40
2019-01-29T11:31:49.515Z,33.80
2019-01-29T11:32:49.407Z,33.80
2019-01-29T11:33:50.458Z,32.90
2019-01-29T11:34:49.349Z,29.90
2019-01-29T11:35:49.320Z,32.60
2019-01-29T11:36:49.335Z,31.70
2019-01-29T11:37:49.275Z,34.90
2019-01-29T11:38:49.242Z,32.90
2019-01-29T11:39:49.215Z,34.70
2019-01-29T11:40:49.176Z,35.50
2019-01-29T11:41:49.122Z,33.20
2019-01-29T11:42:49.109Z,33.80
2019-01-29T11:43:49.081Z,29.30
2019-01-29T11:44:49.038Z,31.90
2019-01-29T11:45:49.025Z,36.30
2019-01-29T11:46:49.010Z,30.60
2019-01-29T11:47:48.963Z,30.60
2019-01-29T11:48:48.949Z,35.00
2019-01-29T11:49:49.029Z,33.10
2019-01-29T11:50:48.852Z,30.90
2019-01-29T11:51:50.880Z,36.70
2019-01-29T11:52:48.834Z,32.10
2019-01-29T11:53:48.850Z,31.40
2019-01-29T11:54:50.393Z,34.60
2019-01-29T11:55:48.762Z,32.60
2019-01-29T11:56:48.642Z,37.50
2019-01-29T11:57:57.614Z,30.00
2019-01-29T11:58:48.602Z,36.40
2019-01-29T11:59:48.688Z,33.90
2019-01-29T12:00:48.514Z,31.70
2019-01-29T12:01:49.614Z,32.00
2019-01-29T12:02:48.460Z,32.50
2019-01-29T12:03:55.166Z,30.40
2019-01-29T12:04:48.391Z,25.10
2019-01-29T12:05:48.526Z,28.60
2019-01-29T12:06:48.341Z,28.50
2019-01-29T12:07:49.463Z,24.60
2019-01-29T12:08:48.276Z,25.80
2019-01-29T12:09:50.385Z,27.90
2019-01-29T12:10:48.196Z,26.40
2019-01-29T12:11:48.189Z,29.40
2019-01-29T12:12:48.135Z,27.80
2019-01-29T12:13:48.090Z,25.60
2019-01-29T12:14:48.074Z,25.50
2019-01-29T12:15:48.033Z,22.80
2019-01-29T12:16:47.997Z,24.10
2019-01-29T12:17:47.966Z,28.30
2019-01-29T12:18:47.954Z,26.40
2019-01-29T12:19:47.908Z,27.50
2019-01-29T12:20:47.878Z,25.70
2019-01-29T12:21:47.852Z,25.90
2019-01-29T12:22:47.823Z,27.00
2019-01-29T12:23:47.773Z,26.80
2019-01-29T12:24:47.741Z,24.00
2019-01-29T12:25:47.711Z,25.40
2019-01-29T12:26:47.710Z,23.00
2019-01-29T12:27:47.652Z,21.60
2019-01-29T12:28:47.607Z,26.30
2019-01-29T12:29:48.574Z,20.10
2019-01-29T12:30:47.555Z,20.70
2019-01-29T12:31:47.540Z,21.10
2019-01-29T12:32:47.477Z,21.90
2019-01-29T12:33:47.601Z,20.70
2019-01-29T12:34:47.428Z,19.30
2019-01-29T12:35:47.405Z,15.80
2019-01-29T12:36:47.360Z,17.40
2019-01-29T12:37:47.335Z,20.10
2019-01-29T12:38:47.910Z,16.90
2019-01-29T12:39:47.255Z,17.80
2019-01-29T12:40:47.276Z,18.30
2019-01-29T12:41:47.253Z,18.20
2019-01-29T12:42:47.170Z,18.10
2019-01-29T12:43:47.156Z,16.80
2019-01-29T12:44:47.132Z,17.50
2019-01-29T12:45:48.316Z,16.60
2019-01-29T12:46:47.056Z,17.60
2019-01-29T12:47:47.022Z,21.40
2019-01-29T12:48:47.079Z,15.90
2019-01-29T12:49:46.965Z,16.40
2019-01-29T12:50:46.953Z,19.40
2019-01-29T12:51:46.900Z,20.90
2019-01-29T12:52:46.853Z,14.80
2019-01-29T12:53:46.819Z,19.20